Time;durP1;ratioP1;P1;durP2;ratioP2;P2;SDS_P1;SDS_P2;PMS_P1;PMS_P2;Temp;Humidity;BMP_temperature;BMP_pressure;BME280_temperature;BME280_humidity;BME280_pressure;Samples;Min_cycle;Max_cycle;Signal;HPM_P1;HPM_P2
2022/01/09 00:02:19;;;;;;;36.72;18.63;;;;;;;3.56;51.28;99163.25;5027983;28;20128;-79
2022/01/09 00:04:46;;;;;;;39.65;21.73;;;;;;;3.56;51.23;99155.41;5027975;28;20209;-77
2022/01/09 00:07:13;;;;;;;36.40;19.65;;;;;;;3.59;51.16;99160.47;5027132;28;20057;-76
2022/01/09 00:09:43;;;;;;;38.10;19.83;;;;;;;3.60;51.14;99156.06;5031474;28;20059;-76
2022/01/09 00:12:11;;;;;;;39.63;21.77;;;;;;;3.54;51.36;99156.47;5029164;28;20049;-77
2022/01/09 00:14:38;;;;;;;39.47;19.10;;;;;;;3.52;51.50;99153.09;5026646;28;20706;-78
2022/01/09 00:17:05;;;;;;;36.42;20.60;;;;;;;3.55;51.45;99158.97;5036813;28;20041;-77
2022/01/09 00:19:35;;;;;;;31.67;19.95;;;;;;;3.56;51.45;99160.66;5027988;28;20053;-78
2022/01/09 00:22:03;;;;;;;37.70;20.35;;;;;;;3.54;51.37;99153.84;5009643;28;20132;-76
2022/01/09 00:24:30;;;;;;;41.53;20.70;;;;;;;3.53;51.61;99154.78;5028737;28;20129;-77
2022/01/09 00:26:57;;;;;;;41.22;21.98;;;;;;;3.49;51.62;99154.13;5024771;28;20069;-74
2022/01/09 00:29:24;;;;;;;41.28;20.38;;;;;;;3.46;51.61;99143.88;5023235;28;20691;-71
2022/01/09 00:31:51;;;;;;;46.10;23.23;;;;;;;3.40;51.80;99154.69;5021431;28;20047;-76
2022/01/09 00:34:18;;;;;;;42.30;21.55;;;;;;;3.35;51.72;99146.28;5020715;28;20056;-75
2022/01/09 00:36:47;;;;;;;48.30;22.65;;;;;;;3.33;52.07;99150.75;5021743;28;20136;-72
2022/01/09 00:39:14;;;;;;;44.10;22.75;;;;;;;3.29;52.02;99146.66;5021991;28;20057;-72
2022/01/09 00:41:44;;;;;;;37.28;17.60;;;;;;;3.27;51.91;99146.75;5022028;28;20081;-71
2022/01/09 00:44:11;;;;;;;34.08;18.90;;;;;;;3.23;51.85;99148.72;5020590;28;20056;-74
2022/01/09 00:46:38;;;;;;;39.53;19.27;;;;;;;3.20;52.00;99148.06;5004764;28;20096;-73
2022/01/09 00:49:06;;;;;;;37.55;19.70;;;;;;;3.19;52.03;99141.19;5020904;28;20069;-71
2022/01/09 00:51:33;;;;;;;39.90;19.90;;;;;;;3.16;52.00;99125.69;5012566;28;20145;-73
2022/01/09 00:54:01;;;;;;;34.83;18.95;;;;;;;3.14;51.92;99132.78;5012914;28;20483;-73
2022/01/09 00:56:28;;;;;;;46.03;19.45;;;;;;;3.12;51.92;99126.81;5009059;28;20496;-73
2022/01/09 00:58:55;;;;;;;39.45;18.50;;;;;;;3.07;52.16;99127.06;5012473;28;20049;-74
2022/01/09 01:04:08;;;;;;;34.97;18.40;;;;;;;3.01;52.21;99119.63;4987443;28;20495;-74
2022/01/09 01:06:35;;;;;;;35.90;19.65;;;;;;;2.95;52.33;99106.94;4994890;28;20137;-72
2022/01/09 01:09:06;;;;;;;35.63;19.73;;;;;;;2.93;52.55;99114.84;5004933;28;20104;-73
2022/01/09 01:11:33;;;;;;;36.53;19.23;;;;;;;2.92;52.45;99104.50;5004683;28;20053;-74
2022/01/09 01:14:03;;;;;;;42.53;20.75;;;;;;;2.93;52.42;99103.59;5005136;28;20207;-74
2022/01/09 01:16:31;;;;;;;38.53;23.73;;;;;;;2.93;52.30;99093.16;5004635;28;20050;-75
2022/01/09 01:18:59;;;;;;;45.00;25.20;;;;;;;2.90;52.46;99093.31;5003859;28;20058;-73
2022/01/09 01:21:26;;;;;;;52.50;26.23;;;;;;;2.87;52.65;99082.16;5004060;28;20069;-72
2022/01/09 01:23:53;;;;;;;41.65;21.20;;;;;;;2.89;52.74;99083.84;5002934;28;20079;-73
2022/01/09 01:26:22;;;;;;;45.95;25.75;;;;;;;2.85;52.85;99081.41;5002066;28;20177;-72
2022/01/09 01:28:50;;;;;;;41.17;21.05;;;;;;;2.83;52.94;99088.47;5003291;28;20116;-73
2022/01/09 01:31:16;;;;;;;38.97;20.17;;;;;;;2.84;52.79;99091.94;5003575;28;20133;-72
2022/01/09 01:33:43;;;;;;;40.08;21.13;;;;;;;2.83;52.70;99083.28;5002866;28;20120;-71
2022/01/09 01:36:11;;;;;;;38.83;21.73;;;;;;;2.80;52.88;99072.19;5023921;28;20068;-73
2022/01/09 01:38:40;;;;;;;41.35;20.05;;;;;;;2.66;53.04;99079.03;5025423;28;20577;-77
2022/01/09 01:41:07;;;;;;;41.85;18.75;;;;;;;2.49;52.90;99066.16;5025600;28;20053;-71
2022/01/09 01:43:37;;;;;;;42.75;21.35;;;;;;;2.32;53.52;99054.09;5026690;28;20136;-72
2022/01/09 01:46:04;;;;;;;41.58;21.67;;;;;;;2.15;53.79;99060.28;5025452;28;20144;-75
2022/01/09 01:48:31;;;;;;;49.22;24.83;;;;;;;2.01;53.93;99068.88;5026039;28;20636;-70
2022/01/09 01:50:58;;;;;;;39.70;23.10;;;;;;;1.89;54.12;99059.13;5025748;28;20141;-75
2022/01/09 01:53:26;;;;;;;41.78;22.05;;;;;;;1.80;54.31;99055.31;5026062;28;20096;-72
2022/01/09 01:55:55;;;;;;;44.15;22.75;;;;;;;1.70;54.21;99054.97;5025586;28;20050;-72
2022/01/09 01:58:24;;;;;;;42.28;24.30;;;;;;;1.61;54.69;99047.66;5025310;28;20148;-74
2022/01/09 02:00:53;;;;;;;42.53;23.25;;;;;;;1.56;54.64;99041.88;5026256;28;20509;-71
2022/01/09 02:03:20;;;;;;;48.30;22.88;;;;;;;1.49;54.66;99040.53;5026509;28;20128;-72
2022/01/09 02:05:47;;;;;;;43.53;22.50;;;;;;;1.42;54.75;99033.97;5026034;28;20132;-72
2022/01/09 02:08:14;;;;;;;46.05;21.45;;;;;;;1.38;54.86;99032.47;5026853;28;20797;-73
2022/01/09 02:10:44;;;;;;;49.97;23.05;;;;;;;1.34;54.66;99037.00;5026696;28;20561;-71
2022/01/09 02:13:12;;;;;;;43.33;22.80;;;;;;;1.28;54.87;99032.97;5026797;28;20049;-71
2022/01/09 02:15:42;;;;;;;51.60;25.02;;;;;;;1.23;54.89;99028.94;5025668;28;20057;-70
2022/01/09 02:18:13;;;;;;;36.60;20.80;;;;;;;1.19;55.17;99030.00;5026294;28;20127;-76
2022/01/09 02:20:43;;;;;;;43.70;23.17;;;;;;;1.14;55.13;99031.09;5025377;28;20045;-74
2022/01/09 02:23:11;;;;;;;49.88;22.65;;;;;;;1.09;55.12;99032.28;5026967;28;20046;-74
2022/01/09 02:25:40;;;;;;;45.80;23.88;;;;;;;1.04;55.09;99029.91;5026640;28;20132;-73
2022/01/09 02:28:08;;;;;;;39.30;21.50;;;;;;;0.99;55.11;99034.53;5024136;28;20054;-73
2022/01/09 02:30:36;;;;;;;44.45;22.63;;;;;;;0.97;55.36;99030.31;5025980;28;20180;-72
2022/01/09 02:33:06;;;;;;;48.10;23.20;;;;;;;0.91;55.23;99032.31;5026133;28;20512;-74
2022/01/09 02:35:33;;;;;;;40.38;20.30;;;;;;;0.88;55.47;99023.84;5025537;28;20049;-74
2022/01/09 02:38:03;;;;;;;45.47;22.75;;;;;;;0.89;55.47;99030.72;5026102;28;20617;-73
2022/01/09 02:40:30;;;;;;;42.08;23.00;;;;;;;0.84;55.29;99022.31;5024621;28;20049;-75
2022/01/09 02:42:58;;;;;;;43.00;22.73;;;;;;;0.80;55.41;99026.84;5026650;28;20054;-71
2022/01/09 02:45:27;;;;;;;37.78;20.35;;;;;;;0.76;55.59;99025.34;5026010;28;20103;-71
2022/01/09 02:47:57;;;;;;;40.00;19.63;;;;;;;0.74;55.46;99024.59;5025461;28;20130;-73
2022/01/09 02:50:43;;;;;;;43.75;24.90;;;;;;;0.68;55.45;99023.09;5025582;28;20061;-70
2022/01/09 02:53:17;;;;;;;40.67;21.20;;;;;;;0.70;55.75;99020.44;5025645;28;20386;-73
2022/01/09 02:55:44;;;;;;;42.22;22.23;;;;;;;0.65;55.47;99015.50;5029167;28;20251;-73
2022/01/09 02:58:11;;;;;;;38.20;22.15;;;;;;;0.61;55.72;99010.53;5022780;28;20046;-70
2022/01/09 03:00:42;;;;;;;39.85;22.60;;;;;;;0.60;55.63;99004.50;5024917;28;20133;-73
2022/01/09 03:03:10;;;;;;;37.15;21.30;;;;;;;0.58;55.88;99006.34;5024533;28;20042;-73
2022/01/09 03:05:38;;;;;;;43.92;22.58;;;;;;;0.54;55.92;98997.84;5024786;28;20060;-72
2022/01/09 03:08:06;;;;;;;42.08;21.13;;;;;;;0.53;55.83;98998.75;5024916;28;20140;-74
2022/01/09 03:10:35;;;;;;;41.33;22.73;;;;;;;0.50;55.99;98991.13;5024447;28;20045;-73
2022/01/09 03:13:05;;;;;;;45.67;24.67;;;;;;;0.44;56.06;98996.66;5025628;28;20590;-72
2022/01/09 03:15:32;;;;;;;42.08;23.65;;;;;;;0.42;55.97;98993.28;5024328;28;20060;-75
2022/01/09 03:17:59;;;;;;;41.47;23.58;;;;;;;0.39;56.05;98993.44;5024986;28;20049;-73
2022/01/09 03:20:27;;;;;;;48.05;22.92;;;;;;;0.35;56.13;98989.31;5027025;28;20049;-73
2022/01/09 03:22:56;;;;;;;44.67;24.17;;;;;;;0.33;56.15;98985.97;5024936;28;20060;-72
2022/01/09 03:25:23;;;;;;;49.33;26.17;;;;;;;0.29;56.52;98990.47;5025172;28;20067;-70
2022/01/09 03:27:52;;;;;;;43.85;21.00;;;;;;;0.29;56.27;98984.41;5021444;28;20045;-73
2022/01/09 03:30:21;;;;;;;43.50;22.05;;;;;;;0.27;56.48;98986.25;5023659;28;20081;-73
2022/01/09 03:32:50;;;;;;;40.03;20.38;;;;;;;0.25;56.46;98993.28;5025120;28;20573;-71
2022/01/09 03:35:19;;;;;;;46.90;21.48;;;;;;;0.23;56.17;98984.75;5024146;28;20537;-73
2022/01/09 03:37:47;;;;;;;38.38;20.60;;;;;;;0.23;56.60;98995.13;5025174;28;20073;-71
2022/01/09 03:40:18;;;;;;;39.00;21.90;;;;;;;0.19;56.54;98989.25;5025057;28;20122;-72
2022/01/09 03:42:45;;;;;;;42.72;24.55;;;;;;;0.17;56.75;98991.91;5024269;28;20109;-71
2022/01/09 03:45:14;;;;;;;44.85;24.42;;;;;;;0.16;56.91;98990.25;5024258;28;20151;-70
2022/01/09 03:47:42;;;;;;;42.60;19.00;;;;;;;0.17;56.53;98981.53;5024685;28;20564;-70
2022/01/09 03:50:12;;;;;;;40.92;21.42;;;;;;;0.15;56.57;98978.19;5025042;28;20136;-72
2022/01/09 03:52:40;;;;;;;37.25;19.77;;;;;;;0.12;56.73;98978.31;5024058;28;20050;-74
2022/01/09 03:55:10;;;;;;;40.80;20.02;;;;;;;0.11;56.59;98987.03;5023572;28;20101;-72
2022/01/09 03:57:38;;;;;;;41.78;20.00;;;;;;;0.10;56.75;98977.56;5023129;28;20125;-70
2022/01/09 04:00:07;;;;;;;37.17;18.77;;;;;;;0.08;56.29;98970.78;5025072;28;20107;-70
2022/01/09 04:02:35;;;;;;;46.15;22.35;;;;;;;0.05;56.68;98966.56;5024708;28;20061;-69
2022/01/09 04:05:03;;;;;;;41.28;21.40;;;;;;;0.04;56.85;98974.44;5024117;28;20141;-72
2022/01/09 04:07:30;;;;;;;47.85;24.95;;;;;;;0.01;56.90;98970.25;5024612;28;20072;-69
2022/01/09 04:09:57;;;;;;;46.35;21.60;;;;;;;0.03;57.02;98967.56;5022789;28;20108;-72
2022/01/09 04:12:34;;;;;;;48.20;22.55;;;;;;;0.01;56.95;98970.25;5024437;28;20103;-71
2022/01/09 04:15:03;;;;;;;51.45;28.80;;;;;;;0.01;56.93;98969.41;5024881;28;20156;-71
2022/01/09 04:17:40;;;;;;;41.42;25.50;;;;;;;-0.02;56.73;98971.25;5023664;28;20060;-69
2022/01/09 04:20:11;;;;;;;43.30;23.35;;;;;;;-0.02;57.03;98980.75;5023992;28;20053;-70
2022/01/09 04:22:38;;;;;;;50.88;27.52;;;;;;;-0.06;57.23;98971.47;5023813;28;20056;-72
2022/01/09 04:25:06;;;;;;;53.17;24.73;;;;;;;-0.07;57.10;98969.81;5023511;28;20513;-70
2022/01/09 04:27:35;;;;;;;58.15;29.50;;;;;;;-0.09;57.28;98969.00;5021850;28;20049;-72
2022/01/09 04:30:03;;;;;;;45.70;20.67;;;;;;;-0.09;57.36;98974.19;5024783;28;20578;-70
2022/01/09 04:32:30;;;;;;;45.55;25.92;;;;;;;-0.11;57.45;98960.47;5024057;28;20126;-73
2022/01/09 04:34:58;;;;;;;45.75;22.80;;;;;;;-0.13;57.32;98968.31;5024419;28;20533;-70
2022/01/09 04:37:27;;;;;;;45.55;25.58;;;;;;;-0.15;57.39;98958.94;5024263;28;20056;-72
2022/01/09 04:39:55;;;;;;;66.68;35.40;;;;;;;-0.16;57.76;98965.91;5030426;28;20046;-71
2022/01/09 04:42:29;;;;;;;56.03;27.10;;;;;;;-0.16;57.52;98963.31;5032016;28;20053;-72
2022/01/09 04:44:56;;;;;;;49.97;24.52;;;;;;;-0.16;57.70;98957.25;5028012;28;20057;-71
2022/01/09 04:47:23;;;;;;;51.95;24.90;;;;;;;-0.14;57.62;98958.03;5029223;28;20136;-71
2022/01/09 04:49:50;;;;;;;63.47;33.05;;;;;;;-0.16;58.03;98952.91;5027744;28;20081;-72
2022/01/09 04:52:21;;;;;;;59.95;31.23;;;;;;;-0.17;57.88;98953.00;5028055;28;20041;-72
2022/01/09 04:54:50;;;;;;;45.35;25.50;;;;;;;-0.16;58.01;98952.06;5030416;28;20140;-71
2022/01/09 04:57:20;;;;;;;46.60;23.42;;;;;;;-0.16;57.96;98957.25;5027155;28;20099;-76
2022/01/09 04:59:47;;;;;;;51.10;27.63;;;;;;;-0.18;58.24;98948.69;5029833;28;20177;-70
2022/01/09 05:02:14;;;;;;;57.55;29.98;;;;;;;-0.19;58.34;98955.66;5028956;28;20084;-69
2022/01/09 05:04:41;;;;;;;54.63;28.90;;;;;;;-0.18;58.58;98952.16;5027490;28;20116;-70
2022/01/09 05:07:09;;;;;;;56.78;28.52;;;;;;;-0.18;58.71;98943.50;5027263;28;20049;-71
2022/01/09 05:09:36;;;;;;;49.10;26.00;;;;;;;-0.18;58.41;98933.13;5028736;28;20053;-72
2022/01/09 05:12:06;;;;;;;49.03;29.05;;;;;;;-0.17;58.63;98935.66;5028520;28;20046;-72
2022/01/09 05:14:33;;;;;;;55.65;26.25;;;;;;;-0.18;58.50;98922.75;5029118;28;20049;-74
2022/01/09 05:17:00;;;;;;;47.20;26.02;;;;;;;-0.18;58.30;98925.34;5027936;28;20548;-76
2022/01/09 05:19:31;;;;;;;53.70;28.17;;;;;;;-0.18;58.49;98917.56;5026477;28;20050;-68
2022/01/09 05:21:59;;;;;;;55.72;30.05;;;;;;;-0.20;58.70;98917.63;5026708;28;20057;-71
2022/01/09 05:24:26;;;;;;;47.17;24.92;;;;;;;-0.17;58.57;98912.31;5026846;28;20060;-71
2022/01/09 05:26:54;;;;;;;40.83;21.77;;;;;;;-0.15;58.42;98909.63;5025522;28;20105;-72
2022/01/09 05:29:24;;;;;;;50.55;30.20;;;;;;;-0.13;58.47;98900.84;5027995;28;20188;-71
2022/01/09 05:31:51;;;;;;;49.78;25.05;;;;;;;-0.12;58.52;98901.69;5028598;28;20127;-69
2022/01/09 05:34:18;;;;;;;47.85;25.70;;;;;;;-0.12;58.40;98899.94;5032442;28;20100;-69
2022/01/09 05:36:46;;;;;;;52.92;27.85;;;;;;;-0.13;58.62;98894.81;5033348;28;20136;-68
2022/01/09 05:39:13;;;;;;;45.08;24.67;;;;;;;-0.12;58.68;98896.50;5034721;28;20054;-67
2022/01/09 05:41:42;;;;;;;60.63;30.45;;;;;;;-0.14;58.97;98899.19;5035684;28;20097;-68
2022/01/09 05:44:09;;;;;;;33.97;22.00;;;;;;;-0.07;58.77;98905.75;5036848;28;20077;-69
2022/01/09 05:46:37;;;;;;;43.97;20.88;;;;;;;-0.05;58.37;98910.88;5038913;28;20144;-71
2022/01/09 05:49:04;;;;;;;43.67;26.42;;;;;;;-0.06;58.47;98902.22;5031793;28;20045;-74
2022/01/09 05:51:31;;;;;;;54.35;29.27;;;;;;;-0.04;58.30;98907.34;5031476;28;20195;-74
2022/01/09 05:53:58;;;;;;;43.40;21.73;;;;;;;-0.05;58.57;98903.06;5033490;28;20490;-76
2022/01/09 05:56:25;;;;;;;48.90;26.65;;;;;;;-0.05;58.55;98896.13;5031131;28;21026;-70
2022/01/09 05:58:53;;;;;;;54.30;25.52;;;;;;;-0.05;58.41;98901.31;5032607;28;20049;-76
2022/01/09 06:01:20;;;;;;;42.53;23.98;;;;;;;-0.03;58.44;98901.22;5032476;28;20081;-73
2022/01/09 06:03:48;;;;;;;51.65;27.08;;;;;;;-0.07;58.70;98904.91;5034988;28;20041;-71
2022/01/09 06:06:15;;;;;;;47.53;26.05;;;;;;;-0.07;58.75;98907.50;5029098;28;20490;-72
2022/01/09 06:08:42;;;;;;;65.47;35.75;;;;;;;-0.09;58.78;98915.38;5027141;28;20606;-71
2022/01/09 06:11:09;;;;;;;48.28;26.50;;;;;;;-0.10;58.63;98905.06;5028100;28;20046;-73
2022/01/09 06:13:36;;;;;;;60.65;31.80;;;;;;;-0.11;58.75;98908.56;5026494;28;20053;-70
2022/01/09 06:16:04;;;;;;;50.75;25.02;;;;;;;-0.12;58.73;98909.50;5026321;28;20044;-69
2022/01/09 06:18:31;;;;;;;61.83;28.00;;;;;;;-0.10;58.64;98910.25;5025976;28;20053;-71
2022/01/09 06:21:00;;;;;;;63.20;30.45;;;;;;;-0.13;58.65;98900.84;5026478;28;20135;-71
2022/01/09 06:23:27;;;;;;;58.80;29.10;;;;;;;-0.15;58.54;98914.81;5025937;28;20055;-75
2022/01/09 06:25:55;;;;;;;59.78;33.35;;;;;;;-0.14;58.54;98913.91;5026796;28;20049;-74
2022/01/09 06:28:22;;;;;;;63.13;31.15;;;;;;;-0.13;58.43;98915.59;5024294;28;20140;-71
2022/01/09 06:30:50;;;;;;;44.55;24.23;;;;;;;-0.11;58.57;98914.59;5026609;28;20052;-71
2022/01/09 06:33:17;;;;;;;50.03;24.77;;;;;;;-0.12;58.38;98920.69;5026946;28;20049;-73
2022/01/09 06:35:45;;;;;;;67.28;38.70;;;;;;;-0.13;58.40;98923.38;5025700;28;20045;-71
2022/01/09 06:38:14;;;;;;;62.35;29.70;;;;;;;-0.13;58.52;98921.59;5027261;28;20053;-73
2022/01/09 06:40:41;;;;;;;64.55;30.45;;;;;;;-0.11;58.51;98926.72;5025158;28;20078;-76
2022/01/09 06:43:08;;;;;;;51.58;27.65;;;;;;;-0.11;58.32;98926.72;5025470;28;20054;-73
2022/01/09 06:45:35;;;;;;;64.07;30.92;;;;;;;-0.11;58.58;98932.78;5025397;28;20702;-76
2022/01/09 06:48:03;;;;;;;61.65;27.40;;;;;;;-0.09;58.23;98937.88;5036738;28;20037;-69
2022/01/09 06:50:30;;;;;;;55.63;27.67;;;;;;;-0.08;58.46;98942.16;5024899;28;20050;-74
2022/01/09 06:52:57;;;;;;;53.15;25.40;;;;;;;-0.08;58.04;98942.16;5024629;28;20056;-71
2022/01/09 06:55:26;;;;;;;57.38;27.95;;;;;;;-0.07;58.03;98943.84;5024801;28;20132;-73
2022/01/09 06:57:54;;;;;;;60.13;26.45;;;;;;;-0.08;58.06;98944.75;5021952;28;20080;-69
2022/01/09 07:00:22;;;;;;;50.92;24.95;;;;;;;-0.06;58.28;98946.34;5025951;28;20046;-68
2022/01/09 07:02:49;;;;;;;55.13;26.13;;;;;;;-0.03;58.31;98948.78;5026590;28;20597;-74
2022/01/09 07:05:17;;;;;;;56.08;28.55;;;;;;;-0.02;57.96;98949.63;5034917;28;20077;-71
2022/01/09 07:07:44;;;;;;;47.85;27.38;;;;;;;-0.01;58.10;98949.53;5025560;28;20051;-76
2022/01/09 07:10:12;;;;;;;54.70;32.70;;;;;;;-0.02;58.12;98950.47;5025287;28;20056;-75
2022/01/09 07:12:42;;;;;;;56.35;25.30;;;;;;;0.03;58.10;98952.81;5031363;28;20073;-70
2022/01/09 07:15:10;;;;;;;56.97;26.45;;;;;;;0.03;57.78;98959.78;5036658;28;20634;-69
2022/01/09 07:17:38;;;;;;;44.10;22.88;;;;;;;0.07;57.96;98956.09;5042693;28;20117;-69
2022/01/09 07:20:06;;;;;;;51.63;23.80;;;;;;;0.11;57.57;98961.09;5043130;28;20089;-70
2022/01/09 07:22:33;;;;;;;45.78;26.30;;;;;;;0.13;57.56;98967.03;5045775;28;20084;-76
2022/01/09 07:25:01;;;;;;;44.78;22.20;;;;;;;0.15;57.87;98967.78;5043833;28;20040;-73
2022/01/09 07:27:28;;;;;;;43.08;22.85;;;;;;;0.16;57.73;98963.44;5031372;28;20046;-74
2022/01/09 07:29:57;;;;;;;44.17;21.05;;;;;;;0.18;57.66;98975.44;5026106;28;20128;-71
2022/01/09 07:32:24;;;;;;;50.15;23.85;;;;;;;0.20;57.23;98967.56;5030526;28;20104;-72
2022/01/09 07:34:51;;;;;;;48.42;21.90;;;;;;;0.21;57.38;98974.44;5030337;28;20101;-71
2022/01/09 07:37:18;;;;;;;50.53;23.33;;;;;;;0.25;57.29;98973.34;5024027;28;20045;-74
2022/01/09 07:39:45;;;;;;;51.45;24.20;;;;;;;0.27;57.46;98978.47;5022698;28;20428;-69
2022/01/09 07:42:12;;;;;;;44.63;22.88;;;;;;;0.34;57.38;98974.63;5010428;28;20065;-69
2022/01/09 07:44:39;;;;;;;53.08;25.48;;;;;;;0.37;57.38;98972.72;5002317;28;20046;-71
2022/01/09 07:47:07;;;;;;;65.90;34.60;;;;;;;0.52;56.96;98980.66;5003582;28;20060;-70
2022/01/09 07:49:34;;;;;;;106.95;66.50;;;;;;;0.71;56.96;98975.34;5003508;28;20600;-74
2022/01/09 07:52:01;;;;;;;58.47;28.88;;;;;;;0.89;56.33;98969.16;5020894;28;20750;-68
2022/01/09 07:54:28;;;;;;;47.78;23.90;;;;;;;0.95;56.35;98968.88;5019834;28;20132;-73
2022/01/09 07:56:55;;;;;;;46.47;23.33;;;;;;;1.00;56.26;98965.16;5037395;28;20060;-73
2022/01/09 07:59:22;;;;;;;52.03;25.30;;;;;;;1.05;56.39;98963.16;5020325;28;20045;-70
2022/01/09 08:01:50;;;;;;;45.88;25.15;;;;;;;1.18;56.17;98965.94;5013923;28;20045;-78
2022/01/09 08:04:20;;;;;;;44.75;24.00;;;;;;;1.34;55.86;98965.00;5027140;28;20123;-79
2022/01/09 08:06:47;;;;;;;45.63;26.00;;;;;;;1.50;55.85;98961.56;5007735;28;20058;-79
2022/01/09 08:09:14;;;;;;;55.17;28.02;;;;;;;1.59;55.60;98958.44;5027728;28;20045;-78
2022/01/09 08:11:41;;;;;;;59.30;32.13;;;;;;;1.64;55.30;98972.03;5031083;28;20125;-74
2022/01/09 08:14:08;;;;;;;65.43;32.08;;;;;;;1.62;55.28;98953.06;5032785;28;20063;-72
2022/01/09 08:16:36;;;;;;;52.53;31.80;;;;;;;1.60;55.13;98959.25;5017322;28;20037;-71
2022/01/09 08:19:03;;;;;;;53.40;27.13;;;;;;;1.63;55.20;98957.31;5031384;28;20498;-76
2022/01/09 08:21:34;;;;;;;54.80;25.42;;;;;;;1.62;55.40;98963.47;5030930;28;20046;-81
2022/01/09 08:24:01;;;;;;;45.30;23.45;;;;;;;1.61;55.44;98960.97;5030023;28;20064;-81
2022/01/09 08:26:28;;;;;;;48.05;25.23;;;;;;;1.57;55.49;98960.28;5021409;28;20069;-77
2022/01/09 08:28:55;;;;;;;43.80;24.08;;;;;;;1.51;55.62;98956.28;5030115;28;20120;-75
2022/01/09 08:31:23;;;;;;;41.58;21.25;;;;;;;1.52;55.80;98959.69;5043075;28;20078;-72
2022/01/09 08:33:51;;;;;;;42.25;22.08;;;;;;;1.53;55.80;98961.38;5033372;28;20121;-78
2022/01/09 08:36:18;;;;;;;44.95;22.60;;;;;;;1.60;55.51;98957.50;5030180;28;20158;-73
2022/01/09 08:38:48;;;;;;;41.13;21.30;;;;;;;1.63;55.48;98952.13;5030706;28;20537;-75
2022/01/09 08:41:15;;;;;;;41.10;21.55;;;;;;;1.67;55.42;98951.00;5027501;28;20041;-72
2022/01/09 08:43:43;;;;;;;32.20;19.27;;;;;;;1.72;55.48;98954.19;5030228;28;20057;-76
2022/01/09 08:46:13;;;;;;;38.22;19.65;;;;;;;1.77;55.40;98948.75;5025941;28;20067;-71
2022/01/09 08:48:40;;;;;;;40.55;20.67;;;;;;;1.85;54.95;98948.28;5026291;28;20049;-77
2022/01/09 08:51:08;;;;;;;41.08;21.00;;;;;;;1.95;55.10;98953.81;5017318;28;20104;-74
2022/01/09 08:53:36;;;;;;;37.28;19.35;;;;;;;2.04;55.03;98954.13;5024853;28;20046;-78
2022/01/09 08:56:08;;;;;;;47.05;22.58;;;;;;;2.15;55.04;98950.06;5025198;28;20136;-67
2022/01/09 08:58:37;;;;;;;32.13;20.95;;;;;;;2.23;54.43;98950.44;5023056;28;20041;-69
2022/01/09 09:01:06;;;;;;;35.92;19.08;;;;;;;2.31;54.41;98947.38;5008523;28;20049;-72
2022/01/09 09:03:34;;;;;;;37.63;21.80;;;;;;;2.40;54.49;98942.44;5026227;28;20128;-73
2022/01/09 09:06:01;;;;;;;43.88;25.05;;;;;;;2.46;54.16;98952.50;5025844;28;20049;-71
2022/01/09 09:08:28;;;;;;;40.17;19.95;;;;;;;2.54;54.18;98951.19;5021256;28;20057;-79
2022/01/09 09:10:55;;;;;;;43.55;20.88;;;;;;;2.62;53.89;98948.97;5020869;28;20520;-70
2022/01/09 09:13:24;;;;;;;36.80;20.65;;;;;;;2.70;53.68;98951.13;5023975;28;20132;-73
2022/01/09 09:15:50;;;;;;;37.03;19.38;;;;;;;2.79;53.64;98954.00;5023998;28;20060;-74
2022/01/09 09:18:17;;;;;;;36.97;18.95;;;;;;;2.84;53.45;98946.72;5021911;28;20056;-72
2022/01/09 09:20:45;;;;;;;45.50;22.20;;;;;;;2.91;53.19;98948.97;5020615;28;20049;-74
2022/01/09 09:23:12;;;;;;;44.35;22.63;;;;;;;3.00;53.15;98951.00;5026094;28;20048;-74
2022/01/09 09:25:39;;;;;;;46.58;24.48;;;;;;;3.07;52.79;98944.47;5032457;28;20047;-73
2022/01/09 09:28:11;;;;;;;50.28;23.80;;;;;;;3.17;52.62;98948.19;5019472;28;20064;-77
2022/01/09 09:30:40;;;;;;;43.05;22.05;;;;;;;3.31;52.40;98944.69;5005889;28;20049;-75
2022/01/09 09:33:08;;;;;;;40.42;19.13;;;;;;;3.44;52.20;98942.16;5026581;28;20053;-75
2022/01/09 09:35:36;;;;;;;38.15;19.95;;;;;;;3.59;52.00;98940.31;5026122;28;20049;-79
2022/01/09 09:38:06;;;;;;;39.45;20.13;;;;;;;3.68;51.77;98939.72;5024738;28;20041;-81
2022/01/09 09:40:35;;;;;;;36.20;18.77;;;;;;;3.78;51.69;98946.03;5025898;28;20096;-80
2022/01/09 09:43:03;;;;;;;34.65;20.67;;;;;;;3.91;51.51;98935.59;4997652;28;20334;-76
2022/01/09 09:45:31;;;;;;;40.70;20.67;;;;;;;4.09;51.04;98937.91;5023267;28;20266;-73
2022/01/09 09:48:01;;;;;;;32.25;18.90;;;;;;;4.29;50.64;98934.81;5028777;28;20678;-77
2022/01/09 09:50:31;;;;;;;40.05;19.35;;;;;;;4.56;50.11;98933.88;5018933;28;20100;-74
2022/01/09 09:52:59;;;;;;;38.88;18.75;;;;;;;4.76;49.54;98933.31;5012967;28;20042;-74
2022/01/09 09:55:27;;;;;;;36.83;19.75;;;;;;;4.90;49.34;98937.59;5013834;28;20049;-74
2022/01/09 09:57:55;;;;;;;35.25;19.67;;;;;;;4.83;49.49;98927.69;5018581;28;20125;-80
2022/01/09 10:00:25;;;;;;;44.35;21.17;;;;;;;4.79;49.52;98932.28;5012996;28;20114;-79
2022/01/09 10:02:54;;;;;;;37.58;20.23;;;;;;;4.73;49.60;98927.47;4983389;28;20053;-74
2022/01/09 10:05:27;;;;;;;37.38;22.40;;;;;;;4.77;49.63;98927.16;5018896;28;20697;-76
2022/01/09 10:07:56;;;;;;;30.92;18.02;;;;;;;4.89;49.49;98932.47;5006199;28;20080;-79
2022/01/09 10:10:33;;;;;;;36.72;19.52;;;;;;;4.92;49.39;98932.25;5013625;28;20046;-74
2022/01/09 10:13:07;;;;;;;30.20;16.15;;;;;;;5.00;49.40;98923.84;4966146;28;20060;-74
2022/01/09 10:15:46;;;;;;;30.60;17.27;;;;;;;5.08;49.26;98925.00;5019650;28;20121;-76
2022/01/09 10:18:14;;;;;;;39.35;18.60;;;;;;;5.17;49.07;98926.94;5014985;28;20045;-75
2022/01/09 10:20:46;;;;;;;41.97;18.88;;;;;;;5.30;49.02;98921.66;5017257;28;20083;-79
2022/01/09 10:23:14;;;;;;;30.48;15.35;;;;;;;5.33;48.81;98926.69;5015923;28;20490;-71
2022/01/09 10:25:42;;;;;;;32.33;18.40;;;;;;;5.42;48.72;98925.19;5007584;28;20054;-73
2022/01/09 10:28:13;;;;;;;25.77;15.70;;;;;;;5.56;48.71;98918.94;4966043;28;20049;-80
2022/01/09 10:30:43;;;;;;;30.35;18.23;;;;;;;5.62;48.23;98922.88;5013372;28;20050;-72
2022/01/09 10:33:13;;;;;;;32.40;18.90;;;;;;;5.75;48.03;98913.19;5012637;28;20049;-73
2022/01/09 10:35:47;;;;;;;35.22;18.35;;;;;;;5.79;47.83;98909.38;5027329;28;20080;-76
2022/01/09 10:38:17;;;;;;;32.40;19.95;;;;;;;5.83;47.48;98897.72;5021331;28;20057;-72
2022/01/09 10:40:49;;;;;;;37.20;22.30;;;;;;;5.81;47.21;98907.47;5005713;28;20045;-71
2022/01/09 10:43:19;;;;;;;40.90;21.98;;;;;;;5.71;47.06;98899.47;5018057;28;20049;-72
2022/01/09 10:45:50;;;;;;;40.88;20.35;;;;;;;5.67;46.78;98902.44;5014040;28;20683;-71
2022/01/09 10:48:26;;;;;;;40.10;21.67;;;;;;;5.73;46.57;98897.56;5007574;28;20058;-78
2022/01/09 10:50:57;;;;;;;40.45;20.42;;;;;;;5.78;46.69;98896.41;4988249;28;20583;-77
2022/01/09 10:53:27;;;;;;;37.10;20.40;;;;;;;5.89;46.36;98892.03;5030924;28;20046;-78
2022/01/09 10:56:17;;;;;;;36.97;19.02;;;;;;;5.93;46.22;98895.25;5033463;28;20105;-82
2022/01/09 11:01:28;;;;;;;33.60;19.65;;;;;;;5.99;45.99;98888.75;4986707;28;20091;-77
2022/01/09 11:03:57;;;;;;;29.60;18.75;;;;;;;5.87;45.82;98882.59;5033025;28;20696;-71
2022/01/09 11:06:30;;;;;;;39.05;21.25;;;;;;;5.86;45.61;98881.78;5030457;28;20057;-74
2022/01/09 11:08:57;;;;;;;36.72;18.15;;;;;;;5.77;45.68;98879.03;5038797;28;20222;-74
2022/01/09 11:11:30;;;;;;;33.30;17.77;;;;;;;5.60;45.40;98886.34;5023650;28;20490;-72
2022/01/09 11:14:04;;;;;;;31.92;16.85;;;;;;;5.49;45.80;98889.75;5027922;28;20064;-77
2022/01/09 11:16:41;;;;;;;28.48;14.43;;;;;;;5.56;45.59;98887.50;5029298;28;20057;-74
2022/01/09 11:19:10;;;;;;;29.05;13.95;;;;;;;5.62;45.66;98878.34;5019943;28;20049;-74
2022/01/09 11:21:42;;;;;;;23.80;15.65;;;;;;;5.65;45.63;98880.75;5027380;28;20048;-76
2022/01/09 11:24:29;;;;;;;33.65;19.20;;;;;;;5.68;45.20;98867.44;5026645;28;20681;-74
2022/01/09 11:27:01;;;;;;;34.47;17.63;;;;;;;5.56;45.41;98869.16;5028907;28;20084;-77
2022/01/09 11:29:35;;;;;;;36.80;22.48;;;;;;;5.46;44.98;98881.28;5023582;28;20050;-71
2022/01/09 11:32:16;;;;;;;31.67;17.30;;;;;;;5.44;45.22;98876.16;5024327;28;20128;-78
2022/01/09 11:34:52;;;;;;;32.13;17.40;;;;;;;5.43;45.02;98877.09;5005868;28;20415;-78
2022/01/09 11:37:41;;;;;;;31.83;16.73;;;;;;;5.53;44.92;98867.63;5024619;28;20056;-81